< Typhoon 199128 1991 Season Typhoon 199201 >
Typhoon 199129 (ZELDA)
General InformationTrack Information on Google MapsDetailed Wind InformationList of All Images || Disaster Info.ResourceGoogle EarthGE AnimationAtom FeedGeoJSON
Detalied Best Track (Time Zone = UTC)
Year Month Day Hour Lat. Long. Pressure (hPa) Wind (kt) Class Image Chart
1991 11 27 06 6.0 176.0 1004 0 2 Image Chart
1991 11 27 12 6.3 175.0 1004 0 2 Image Chart
1991 11 27 18 6.7 174.0 1004 0 2 Image Chart
1991 11 28 00 7.2 172.9 1000 0 2 Image Chart
1991 11 28 06 7.7 172.0 1000 0 2 Image Chart
1991 11 28 12 7.8 171.3 1000 0 2 Image Chart
1991 11 28 18 7.8 170.0 1000 0 2 Image Chart
1991 11 29 00 8.2 168.7 1000 0 2 Image Chart
1991 11 29 03 8.6 167.8 994 40 3 Image Chart
1991 11 29 06 8.6 167.0 990 45 3 Image Chart
1991 11 29 12 8.7 165.5 990 45 3 Image Chart
1991 11 29 18 9.2 164.0 980 55 4 Image Chart
1991 11 30 00 9.7 162.7 980 55 4 Image Chart
1991 11 30 06 10.4 161.2 975 60 4 Image Chart
1991 11 30 12 11.2 159.6 975 60 4 Image Chart
1991 11 30 18 12.3 158.2 975 60 4 Image Chart
1991 12 1 00 13.1 157.1 975 60 4 Image Chart
1991 12 1 06 14.1 156.4 975 60 4 Image Chart
1991 12 1 12 15.2 156.3 975 60 4 Image Chart
1991 12 1 18 16.3 156.4 980 55 4 Image Chart
1991 12 2 00 17.4 157.4 980 55 4 Image Chart
1991 12 2 06 18.2 158.6 985 50 4 Image Chart
1991 12 2 12 18.9 159.9 985 50 4 Image Chart
1991 12 2 18 19.5 161.3 990 45 3 Image Chart
1991 12 3 00 20.2 162.7 990 45 3 Image Chart
1991 12 3 06 20.6 163.5 994 40 3 Image Chart
1991 12 3 12 21.0 164.0 996 35 3 Image Chart
1991 12 3 18 21.5 164.5 1000 0 2 Image Chart
1991 12 4 00 22.0 165.0 1008 0 2 Image Chart
1991 12 4 06 22.5 165.0 1008 0 2 Image Chart
1991 12 4 12 22.9 165.1 1008 0 2 Image Chart
1991 12 4 18 23.3 165.2 1008 0 2 Image Chart
1991 12 5 00 24.0 165.2 1008 0 2 Image Chart
1991 12 5 06 24.7 165.2 1008 0 2 Image Chart
1991 12 5 12 26.5 166.2 1008 0 2 Image Chart
1991 12 5 18 28.0 168.0 1006 0 6 Image Chart
1991 12 6 00 31.0 171.0 1000 0 6 Image Chart
1991 12 6 06 32.0 173.0 994 0 6 Image Chart
1991 12 6 12 34.0 176.0 992 0 6 Image Chart
1991 12 6 18 35.0 180.0 988 0 6 Image Chart
1991 12 7 00 36.0 183.0 988 0 6 Image Chart
Japan Meteorological Agency Best Track Data | Correction Date : 1992-01-04
< Typhoon 199128 1991 Season Typhoon 199201 >

Help